sensor_id;sensor_type;location;lat;lon;timestamp;P1;durP1;ratioP1;P2;durP2;ratioP2
73919;SDS011;62266;53.348;-1.496;2022-08-19T00:00:19;3.83;;;2.80;;
73919;SDS011;62266;53.348;-1.496;2022-08-19T00:02:44;3.95;;;3.20;;
73919;SDS011;62266;53.348;-1.496;2022-08-19T00:05:11;4.05;;;3.40;;
73919;SDS011;62266;53.348;-1.496;2022-08-19T00:07:37;3.25;;;2.90;;
73919;SDS011;62266;53.348;-1.496;2022-08-19T00:10:03;4.07;;;3.57;;
73919;SDS011;62266;53.348;-1.496;2022-08-19T00:12:30;3.78;;;3.22;;
73919;SDS011;62266;53.348;-1.496;2022-08-19T00:14:56;3.57;;;3.27;;
73919;SDS011;62266;53.348;-1.496;2022-08-19T00:17:22;5.70;;;3.58;;
73919;SDS011;62266;53.348;-1.496;2022-08-19T00:19:47;6.00;;;3.80;;
73919;SDS011;62266;53.348;-1.496;2022-08-19T00:22:13;3.97;;;3.50;;
73919;SDS011;62266;53.348;-1.496;2022-08-19T00:24:39;3.97;;;3.58;;
73919;SDS011;62266;53.348;-1.496;2022-08-19T00:27:06;5.18;;;3.97;;
73919;SDS011;62266;53.348;-1.496;2022-08-19T00:29:31;4.13;;;3.73;;
73919;SDS011;62266;53.348;-1.496;2022-08-19T00:31:57;5.27;;;3.70;;
73919;SDS011;62266;53.348;-1.496;2022-08-19T00:34:25;4.80;;;3.03;;
73919;SDS011;62266;53.348;-1.496;2022-08-19T00:36:53;6.22;;;2.83;;
73919;SDS011;62266;53.348;-1.496;2022-08-19T00:39:19;5.97;;;2.00;;
73919;SDS011;62266;53.348;-1.496;2022-08-19T00:41:44;5.77;;;1.80;;
73919;SDS011;62266;53.348;-1.496;2022-08-19T00:44:14;6.72;;;2.10;;
73919;SDS011;62266;53.348;-1.496;2022-08-19T00:46:44;4.70;;;1.92;;
73919;SDS011;62266;53.348;-1.496;2022-08-19T00:49:17;4.80;;;1.83;;
73919;SDS011;62266;53.348;-1.496;2022-08-19T00:51:47;7.43;;;1.90;;
73919;SDS011;62266;53.348;-1.496;2022-08-19T00:54:14;7.85;;;2.10;;
73919;SDS011;62266;53.348;-1.496;2022-08-19T00:56:40;7.30;;;1.90;;
73919;SDS011;62266;53.348;-1.496;2022-08-19T00:59:07;6.55;;;2.20;;
73919;SDS011;62266;53.348;-1.496;2022-08-19T01:01:39;6.88;;;2.20;;
73919;SDS011;62266;53.348;-1.496;2022-08-19T01:04:25;7.70;;;1.90;;
73919;SDS011;62266;53.348;-1.496;2022-08-19T01:06:50;4.57;;;1.93;;
73919;SDS011;62266;53.348;-1.496;2022-08-19T01:09:16;7.70;;;2.20;;
73919;SDS011;62266;53.348;-1.496;2022-08-19T01:11:42;7.57;;;2.00;;
73919;SDS011;62266;53.348;-1.496;2022-08-19T01:14:09;6.57;;;2.13;;
73919;SDS011;62266;53.348;-1.496;2022-08-19T01:16:35;5.85;;;1.90;;
73919;SDS011;62266;53.348;-1.496;2022-08-19T01:19:02;7.80;;;2.22;;
73919;SDS011;62266;53.348;-1.496;2022-08-19T01:21:44;7.30;;;1.97;;
73919;SDS011;62266;53.348;-1.496;2022-08-19T01:24:18;4.88;;;1.77;;
73919;SDS011;62266;53.348;-1.496;2022-08-19T01:26:44;5.43;;;2.05;;
73919;SDS011;62266;53.348;-1.496;2022-08-19T01:29:10;6.23;;;1.60;;
73919;SDS011;62266;53.348;-1.496;2022-08-19T01:31:35;8.27;;;2.03;;
73919;SDS011;62266;53.348;-1.496;2022-08-19T01:34:02;5.32;;;1.75;;
73919;SDS011;62266;53.348;-1.496;2022-08-19T01:36:39;7.95;;;2.15;;
73919;SDS011;62266;53.348;-1.496;2022-08-19T01:39:14;6.03;;;1.88;;
73919;SDS011;62266;53.348;-1.496;2022-08-19T01:41:42;8.27;;;2.47;;
73919;SDS011;62266;53.348;-1.496;2022-08-19T01:44:08;6.55;;;1.92;;
73919;SDS011;62266;53.348;-1.496;2022-08-19T01:46:34;8.23;;;2.40;;
73919;SDS011;62266;53.348;-1.496;2022-08-19T01:49:03;9.67;;;2.10;;
73919;SDS011;62266;53.348;-1.496;2022-08-19T01:51:29;8.25;;;1.65;;
73919;SDS011;62266;53.348;-1.496;2022-08-19T01:53:55;7.95;;;1.75;;
73919;SDS011;62266;53.348;-1.496;2022-08-19T01:56:21;7.20;;;2.03;;
73919;SDS011;62266;53.348;-1.496;2022-08-19T01:58:49;5.47;;;2.07;;
73919;SDS011;62266;53.348;-1.496;2022-08-19T02:01:17;7.35;;;1.85;;
73919;SDS011;62266;53.348;-1.496;2022-08-19T02:03:43;8.52;;;1.90;;
73919;SDS011;62266;53.348;-1.496;2022-08-19T02:06:08;13.10;;;2.30;;
73919;SDS011;62266;53.348;-1.496;2022-08-19T02:08:35;6.90;;;2.63;;
73919;SDS011;62266;53.348;-1.496;2022-08-19T02:11:02;9.73;;;2.17;;
73919;SDS011;62266;53.348;-1.496;2022-08-19T02:13:30;9.00;;;2.05;;
73919;SDS011;62266;53.348;-1.496;2022-08-19T02:15:59;11.80;;;2.22;;
73919;SDS011;62266;53.348;-1.496;2022-08-19T02:18:24;7.13;;;2.13;;
73919;SDS011;62266;53.348;-1.496;2022-08-19T02:20:51;11.65;;;2.58;;
73919;SDS011;62266;53.348;-1.496;2022-08-19T02:23:17;9.38;;;2.47;;
73919;SDS011;62266;53.348;-1.496;2022-08-19T02:25:44;11.73;;;2.03;;
73919;SDS011;62266;53.348;-1.496;2022-08-19T02:28:11;9.95;;;2.60;;
73919;SDS011;62266;53.348;-1.496;2022-08-19T02:30:37;11.15;;;2.42;;
73919;SDS011;62266;53.348;-1.496;2022-08-19T02:33:07;8.40;;;1.77;;
73919;SDS011;62266;53.348;-1.496;2022-08-19T02:35:35;11.02;;;2.45;;
73919;SDS011;62266;53.348;-1.496;2022-08-19T02:38:01;5.47;;;2.10;;
73919;SDS011;62266;53.348;-1.496;2022-08-19T02:40:49;10.13;;;2.53;;
73919;SDS011;62266;53.348;-1.496;2022-08-19T02:43:16;9.90;;;2.08;;
73919;SDS011;62266;53.348;-1.496;2022-08-19T02:45:42;8.63;;;2.25;;
73919;SDS011;62266;53.348;-1.496;2022-08-19T02:48:08;9.37;;;2.20;;
73919;SDS011;62266;53.348;-1.496;2022-08-19T02:50:38;9.70;;;2.78;;
73919;SDS011;62266;53.348;-1.496;2022-08-19T02:53:05;9.88;;;2.40;;
73919;SDS011;62266;53.348;-1.496;2022-08-19T02:55:33;9.48;;;2.03;;
73919;SDS011;62266;53.348;-1.496;2022-08-19T02:58:00;8.80;;;1.90;;
73919;SDS011;62266;53.348;-1.496;2022-08-19T03:00:26;9.73;;;2.50;;
73919;SDS011;62266;53.348;-1.496;2022-08-19T03:02:52;7.00;;;2.00;;
73919;SDS011;62266;53.348;-1.496;2022-08-19T03:05:17;10.52;;;2.00;;
73919;SDS011;62266;53.348;-1.496;2022-08-19T03:07:43;9.03;;;2.20;;
73919;SDS011;62266;53.348;-1.496;2022-08-19T03:10:09;13.90;;;2.15;;
73919;SDS011;62266;53.348;-1.496;2022-08-19T03:12:35;9.93;;;2.00;;
73919;SDS011;62266;53.348;-1.496;2022-08-19T03:15:02;10.48;;;2.03;;
73919;SDS011;62266;53.348;-1.496;2022-08-19T03:17:29;9.48;;;1.60;;
73919;SDS011;62266;53.348;-1.496;2022-08-19T03:19:54;11.50;;;2.40;;
73919;SDS011;62266;53.348;-1.496;2022-08-19T03:22:21;9.50;;;2.33;;
73919;SDS011;62266;53.348;-1.496;2022-08-19T03:24:46;5.60;;;1.60;;
73919;SDS011;62266;53.348;-1.496;2022-08-19T03:27:12;7.30;;;1.80;;
73919;SDS011;62266;53.348;-1.496;2022-08-19T03:29:39;7.68;;;1.90;;
73919;SDS011;62266;53.348;-1.496;2022-08-19T03:32:05;5.35;;;2.00;;
73919;SDS011;62266;53.348;-1.496;2022-08-19T03:34:32;11.20;;;2.15;;
73919;SDS011;62266;53.348;-1.496;2022-08-19T03:37:02;12.57;;;2.17;;
73919;SDS011;62266;53.348;-1.496;2022-08-19T03:39:30;11.40;;;2.60;;
73919;SDS011;62266;53.348;-1.496;2022-08-19T03:41:56;7.90;;;2.00;;
73919;SDS011;62266;53.348;-1.496;2022-08-19T03:44:23;8.27;;;2.10;;
73919;SDS011;62266;53.348;-1.496;2022-08-19T03:46:52;6.70;;;1.83;;
73919;SDS011;62266;53.348;-1.496;2022-08-19T03:49:21;12.80;;;2.00;;
73919;SDS011;62266;53.348;-1.496;2022-08-19T03:51:48;11.40;;;2.08;;
73919;SDS011;62266;53.348;-1.496;2022-08-19T03:54:16;11.97;;;2.10;;
73919;SDS011;62266;53.348;-1.496;2022-08-19T03:56:44;10.18;;;1.83;;
73919;SDS011;62266;53.348;-1.496;2022-08-19T03:59:13;10.23;;;2.05;;
73919;SDS011;62266;53.348;-1.496;2022-08-19T04:01:41;12.60;;;2.65;;
73919;SDS011;62266;53.348;-1.496;2022-08-19T04:04:07;10.25;;;1.95;;
73919;SDS011;62266;53.348;-1.496;2022-08-19T04:06:33;13.47;;;3.00;;
73919;SDS011;62266;53.348;-1.496;2022-08-19T04:09:01;11.70;;;2.30;;
73919;SDS011;62266;53.348;-1.496;2022-08-19T04:11:29;9.05;;;2.17;;
73919;SDS011;62266;53.348;-1.496;2022-08-19T04:13:57;8.60;;;2.13;;
73919;SDS011;62266;53.348;-1.496;2022-08-19T04:16:24;11.35;;;2.05;;
73919;SDS011;62266;53.348;-1.496;2022-08-19T04:18:53;10.05;;;2.42;;
73919;SDS011;62266;53.348;-1.496;2022-08-19T04:21:21;8.63;;;1.98;;
73919;SDS011;62266;53.348;-1.496;2022-08-19T04:23:47;11.77;;;2.70;;
73919;SDS011;62266;53.348;-1.496;2022-08-19T04:26:14;14.40;;;2.63;;
73919;SDS011;62266;53.348;-1.496;2022-08-19T04:28:41;12.32;;;2.45;;
73919;SDS011;62266;53.348;-1.496;2022-08-19T04:31:11;9.27;;;2.40;;
73919;SDS011;62266;53.348;-1.496;2022-08-19T04:33:41;11.93;;;2.45;;
73919;SDS011;62266;53.348;-1.496;2022-08-19T04:36:06;7.80;;;2.30;;
73919;SDS011;62266;53.348;-1.496;2022-08-19T04:38:33;9.77;;;2.38;;
73919;SDS011;62266;53.348;-1.496;2022-08-19T04:41:02;10.52;;;2.10;;
73919;SDS011;62266;53.348;-1.496;2022-08-19T04:43:46;11.52;;;2.20;;
73919;SDS011;62266;53.348;-1.496;2022-08-19T04:46:15;13.73;;;2.83;;
73919;SDS011;62266;53.348;-1.496;2022-08-19T04:48:42;12.13;;;2.28;;
73919;SDS011;62266;53.348;-1.496;2022-08-19T04:51:09;11.60;;;2.42;;
73919;SDS011;62266;53.348;-1.496;2022-08-19T04:53:38;9.75;;;2.40;;
73919;SDS011;62266;53.348;-1.496;2022-08-19T04:56:05;13.40;;;2.50;;
73919;SDS011;62266;53.348;-1.496;2022-08-19T04:58:36;8.47;;;2.20;;
73919;SDS011;62266;53.348;-1.496;2022-08-19T05:01:03;13.25;;;2.08;;
73919;SDS011;62266;53.348;-1.496;2022-08-19T05:03:29;9.48;;;2.00;;
73919;SDS011;62266;53.348;-1.496;2022-08-19T05:06:03;10.70;;;2.10;;
73919;SDS011;62266;53.348;-1.496;2022-08-19T05:08:33;12.80;;;2.25;;
73919;SDS011;62266;53.348;-1.496;2022-08-19T05:11:01;11.50;;;2.10;;
73919;SDS011;62266;53.348;-1.496;2022-08-19T05:13:31;15.02;;;2.70;;
73919;SDS011;62266;53.348;-1.496;2022-08-19T05:15:58;11.63;;;2.22;;
73919;SDS011;62266;53.348;-1.496;2022-08-19T05:18:24;14.18;;;2.92;;
73919;SDS011;62266;53.348;-1.496;2022-08-19T05:21:12;12.20;;;2.50;;
73919;SDS011;62266;53.348;-1.496;2022-08-19T05:23:57;9.23;;;2.20;;
73919;SDS011;62266;53.348;-1.496;2022-08-19T05:26:24;16.13;;;2.80;;
73919;SDS011;62266;53.348;-1.496;2022-08-19T05:28:53;9.77;;;2.08;;
73919;SDS011;62266;53.348;-1.496;2022-08-19T05:31:20;11.27;;;1.80;;
73919;SDS011;62266;53.348;-1.496;2022-08-19T05:33:46;11.95;;;2.38;;
73919;SDS011;62266;53.348;-1.496;2022-08-19T05:36:11;14.93;;;2.72;;
73919;SDS011;62266;53.348;-1.496;2022-08-19T05:38:38;8.50;;;2.13;;
73919;SDS011;62266;53.348;-1.496;2022-08-19T05:41:08;14.30;;;2.30;;
73919;SDS011;62266;53.348;-1.496;2022-08-19T05:43:34;10.95;;;2.17;;
73919;SDS011;62266;53.348;-1.496;2022-08-19T05:46:00;5.63;;;1.98;;
73919;SDS011;62266;53.348;-1.496;2022-08-19T05:48:25;13.17;;;2.63;;
73919;SDS011;62266;53.348;-1.496;2022-08-19T05:50:51;12.00;;;2.10;;
73919;SDS011;62266;53.348;-1.496;2022-08-19T05:53:17;9.97;;;2.20;;
73919;SDS011;62266;53.348;-1.496;2022-08-19T05:55:43;12.90;;;2.50;;
73919;SDS011;62266;53.348;-1.496;2022-08-19T05:58:08;9.63;;;1.97;;
73919;SDS011;62266;53.348;-1.496;2022-08-19T06:00:35;13.85;;;2.95;;
73919;SDS011;62266;53.348;-1.496;2022-08-19T06:03:01;11.30;;;2.87;;
73919;SDS011;62266;53.348;-1.496;2022-08-19T06:05:29;13.07;;;2.25;;
73919;SDS011;62266;53.348;-1.496;2022-08-19T06:07:55;11.13;;;2.08;;
73919;SDS011;62266;53.348;-1.496;2022-08-19T06:10:21;8.63;;;2.10;;
73919;SDS011;62266;53.348;-1.496;2022-08-19T06:12:47;9.40;;;2.00;;
73919;SDS011;62266;53.348;-1.496;2022-08-19T06:15:13;8.10;;;2.10;;
73919;SDS011;62266;53.348;-1.496;2022-08-19T06:17:39;11.23;;;2.55;;
73919;SDS011;62266;53.348;-1.496;2022-08-19T06:20:07;9.63;;;2.85;;
73919;SDS011;62266;53.348;-1.496;2022-08-19T06:22:40;8.07;;;1.92;;
73919;SDS011;62266;53.348;-1.496;2022-08-19T06:25:08;11.23;;;2.33;;
73919;SDS011;62266;53.348;-1.496;2022-08-19T06:27:37;9.27;;;2.20;;
73919;SDS011;62266;53.348;-1.496;2022-08-19T06:30:03;10.10;;;2.17;;
73919;SDS011;62266;53.348;-1.496;2022-08-19T06:32:29;9.48;;;1.90;;
73919;SDS011;62266;53.348;-1.496;2022-08-19T06:34:56;13.90;;;2.25;;
73919;SDS011;62266;53.348;-1.496;2022-08-19T06:37:22;9.83;;;2.20;;
73919;SDS011;62266;53.348;-1.496;2022-08-19T06:39:48;9.60;;;1.83;;
73919;SDS011;62266;53.348;-1.496;2022-08-19T06:42:14;11.07;;;2.17;;
73919;SDS011;62266;53.348;-1.496;2022-08-19T06:44:44;7.55;;;1.70;;
73919;SDS011;62266;53.348;-1.496;2022-08-19T06:47:18;9.55;;;1.85;;
73919;SDS011;62266;53.348;-1.496;2022-08-19T06:49:45;12.88;;;2.28;;
73919;SDS011;62266;53.348;-1.496;2022-08-19T06:52:12;10.80;;;2.10;;
73919;SDS011;62266;53.348;-1.496;2022-08-19T06:54:40;8.27;;;2.03;;
73919;SDS011;62266;53.348;-1.496;2022-08-19T06:57:07;15.83;;;2.33;;
73919;SDS011;62266;53.348;-1.496;2022-08-19T06:59:38;12.07;;;1.65;;
73919;SDS011;62266;53.348;-1.496;2022-08-19T07:02:05;12.88;;;1.98;;
73919;SDS011;62266;53.348;-1.496;2022-08-19T07:04:32;12.82;;;2.42;;
73919;SDS011;62266;53.348;-1.496;2022-08-19T07:07:00;9.55;;;1.77;;
73919;SDS011;62266;53.348;-1.496;2022-08-19T07:09:27;13.30;;;2.07;;
73919;SDS011;62266;53.348;-1.496;2022-08-19T07:11:53;12.77;;;2.00;;
73919;SDS011;62266;53.348;-1.496;2022-08-19T07:14:20;9.82;;;2.53;;
73919;SDS011;62266;53.348;-1.496;2022-08-19T07:16:50;9.77;;;1.90;;
73919;SDS011;62266;53.348;-1.496;2022-08-19T07:19:17;10.05;;;2.03;;
73919;SDS011;62266;53.348;-1.496;2022-08-19T07:21:44;6.77;;;1.67;;
73919;SDS011;62266;53.348;-1.496;2022-08-19T07:24:11;8.82;;;1.80;;
73919;SDS011;62266;53.348;-1.496;2022-08-19T07:26:38;9.30;;;2.20;;
73919;SDS011;62266;53.348;-1.496;2022-08-19T07:29:06;7.80;;;1.88;;
73919;SDS011;62266;53.348;-1.496;2022-08-19T07:31:32;10.10;;;1.95;;
73919;SDS011;62266;53.348;-1.496;2022-08-19T07:34:02;10.50;;;2.03;;
73919;SDS011;62266;53.348;-1.496;2022-08-19T07:36:33;7.38;;;1.92;;
73919;SDS011;62266;53.348;-1.496;2022-08-19T07:39:01;12.80;;;2.33;;
73919;SDS011;62266;53.348;-1.496;2022-08-19T07:41:29;10.70;;;2.90;;
73919;SDS011;62266;53.348;-1.496;2022-08-19T07:43:57;11.35;;;2.25;;
73919;SDS011;62266;53.348;-1.496;2022-08-19T07:46:23;8.93;;;2.67;;
73919;SDS011;62266;53.348;-1.496;2022-08-19T07:48:49;10.07;;;2.00;;
73919;SDS011;62266;53.348;-1.496;2022-08-19T07:51:18;11.05;;;1.98;;
73919;SDS011;62266;53.348;-1.496;2022-08-19T07:53:46;9.32;;;1.70;;
73919;SDS011;62266;53.348;-1.496;2022-08-19T07:56:13;13.00;;;2.40;;
73919;SDS011;62266;53.348;-1.496;2022-08-19T07:58:40;13.45;;;2.10;;
73919;SDS011;62266;53.348;-1.496;2022-08-19T08:01:07;8.70;;;1.90;;
73919;SDS011;62266;53.348;-1.496;2022-08-19T08:03:36;9.75;;;1.55;;
73919;SDS011;62266;53.348;-1.496;2022-08-19T08:06:21;10.35;;;1.75;;
73919;SDS011;62266;53.348;-1.496;2022-08-19T08:09:08;10.87;;;2.27;;
73919;SDS011;62266;53.348;-1.496;2022-08-19T08:11:54;9.35;;;1.92;;
73919;SDS011;62266;53.348;-1.496;2022-08-19T08:14:26;14.48;;;1.83;;
73919;SDS011;62266;53.348;-1.496;2022-08-19T08:16:58;12.05;;;2.10;;
73919;SDS011;62266;53.348;-1.496;2022-08-19T08:19:25;10.48;;;2.33;;
73919;SDS011;62266;53.348;-1.496;2022-08-19T08:21:53;8.30;;;1.90;;
73919;SDS011;62266;53.348;-1.496;2022-08-19T08:24:20;7.32;;;1.60;;
73919;SDS011;62266;53.348;-1.496;2022-08-19T08:26:46;9.07;;;2.08;;
73919;SDS011;62266;53.348;-1.496;2022-08-19T08:29:12;10.57;;;1.77;;
73919;SDS011;62266;53.348;-1.496;2022-08-19T08:31:39;10.43;;;1.50;;
73919;SDS011;62266;53.348;-1.496;2022-08-19T08:34:06;8.45;;;1.30;;
73919;SDS011;62266;53.348;-1.496;2022-08-19T08:36:35;15.57;;;1.80;;
73919;SDS011;62266;53.348;-1.496;2022-08-19T08:39:05;12.32;;;2.53;;
73919;SDS011;62266;53.348;-1.496;2022-08-19T08:44:01;9.30;;;2.05;;
73919;SDS011;62266;53.348;-1.496;2022-08-19T08:46:33;10.52;;;1.80;;
73919;SDS011;62266;53.348;-1.496;2022-08-19T08:52:28;7.78;;;2.08;;
73919;SDS011;62266;53.348;-1.496;2022-08-19T08:54:58;9.70;;;1.73;;
73919;SDS011;62266;53.348;-1.496;2022-08-19T09:00:16;8.93;;;1.80;;
73919;SDS011;62266;53.348;-1.496;2022-08-19T09:02:46;7.53;;;1.20;;
73919;SDS011;62266;53.348;-1.496;2022-08-19T09:05:12;9.00;;;1.73;;
73919;SDS011;62266;53.348;-1.496;2022-08-19T09:07:53;9.63;;;1.67;;
73919;SDS011;62266;53.348;-1.496;2022-08-19T09:10:37;6.17;;;1.50;;
73919;SDS011;62266;53.348;-1.496;2022-08-19T09:15:44;9.70;;;1.67;;
73919;SDS011;62266;53.348;-1.496;2022-08-19T09:18:13;7.80;;;1.50;;
73919;SDS011;62266;53.348;-1.496;2022-08-19T09:20:40;17.10;;;1.95;;
73919;SDS011;62266;53.348;-1.496;2022-08-19T09:23:07;5.33;;;1.50;;
73919;SDS011;62266;53.348;-1.496;2022-08-19T09:25:33;8.68;;;1.67;;
73919;SDS011;62266;53.348;-1.496;2022-08-19T09:27:59;7.53;;;1.50;;
73919;SDS011;62266;53.348;-1.496;2022-08-19T09:30:29;7.50;;;1.67;;
73919;SDS011;62266;53.348;-1.496;2022-08-19T09:32:56;7.20;;;1.67;;
73919;SDS011;62266;53.348;-1.496;2022-08-19T09:35:22;8.18;;;1.70;;
73919;SDS011;62266;53.348;-1.496;2022-08-19T09:37:49;8.75;;;1.73;;
73919;SDS011;62266;53.348;-1.496;2022-08-19T09:40:15;5.57;;;1.13;;
73919;SDS011;62266;53.348;-1.496;2022-08-19T09:42:42;10.82;;;2.08;;
73919;SDS011;62266;53.348;-1.496;2022-08-19T09:45:09;11.80;;;1.77;;
73919;SDS011;62266;53.348;-1.496;2022-08-19T09:47:35;9.32;;;1.50;;
73919;SDS011;62266;53.348;-1.496;2022-08-19T09:50:07;7.25;;;1.25;;
73919;SDS011;62266;53.348;-1.496;2022-08-19T09:52:35;6.63;;;1.10;;
73919;SDS011;62266;53.348;-1.496;2022-08-19T09:55:03;7.63;;;1.33;;
73919;SDS011;62266;53.348;-1.496;2022-08-19T09:57:32;8.15;;;1.40;;
73919;SDS011;62266;53.348;-1.496;2022-08-19T09:59:58;6.88;;;1.45;;
73919;SDS011;62266;53.348;-1.496;2022-08-19T10:02:24;8.73;;;1.27;;
73919;SDS011;62266;53.348;-1.496;2022-08-19T10:04:50;6.40;;;0.98;;
73919;SDS011;62266;53.348;-1.496;2022-08-19T10:07:34;7.75;;;1.48;;
73919;SDS011;62266;53.348;-1.496;2022-08-19T10:10:02;5.00;;;1.23;;
73919;SDS011;62266;53.348;-1.496;2022-08-19T10:12:31;8.90;;;1.30;;
73919;SDS011;62266;53.348;-1.496;2022-08-19T10:14:57;6.65;;;1.50;;
73919;SDS011;62266;53.348;-1.496;2022-08-19T10:17:23;5.27;;;1.20;;
73919;SDS011;62266;53.348;-1.496;2022-08-19T10:19:50;6.07;;;1.42;;
73919;SDS011;62266;53.348;-1.496;2022-08-19T10:22:17;7.28;;;1.17;;
73919;SDS011;62266;53.348;-1.496;2022-08-19T10:24:43;7.25;;;1.55;;
73919;SDS011;62266;53.348;-1.496;2022-08-19T10:27:09;7.50;;;1.30;;
73919;SDS011;62266;53.348;-1.496;2022-08-19T10:29:35;8.70;;;1.20;;
73919;SDS011;62266;53.348;-1.496;2022-08-19T10:32:01;5.10;;;1.03;;
73919;SDS011;62266;53.348;-1.496;2022-08-19T10:34:28;9.27;;;2.25;;
73919;SDS011;62266;53.348;-1.496;2022-08-19T10:36:55;3.38;;;1.30;;
73919;SDS011;62266;53.348;-1.496;2022-08-19T10:39:21;7.57;;;1.20;;
73919;SDS011;62266;53.348;-1.496;2022-08-19T10:41:47;6.90;;;1.40;;
73919;SDS011;62266;53.348;-1.496;2022-08-19T10:44:13;8.37;;;1.50;;
73919;SDS011;62266;53.348;-1.496;2022-08-19T10:46:40;6.57;;;1.20;;
73919;SDS011;62266;53.348;-1.496;2022-08-19T10:49:08;5.65;;;1.00;;
73919;SDS011;62266;53.348;-1.496;2022-08-19T10:51:35;6.82;;;1.33;;
73919;SDS011;62266;53.348;-1.496;2022-08-19T10:54:19;6.80;;;1.83;;
73919;SDS011;62266;53.348;-1.496;2022-08-19T10:56:45;4.87;;;1.13;;
73919;SDS011;62266;53.348;-1.496;2022-08-19T10:59:17;6.50;;;1.30;;
73919;SDS011;62266;53.348;-1.496;2022-08-19T11:01:45;7.88;;;1.83;;
73919;SDS011;62266;53.348;-1.496;2022-08-19T11:04:11;6.35;;;1.45;;
73919;SDS011;62266;53.348;-1.496;2022-08-19T11:06:41;8.23;;;1.80;;
73919;SDS011;62266;53.348;-1.496;2022-08-19T11:09:08;7.13;;;1.67;;
73919;SDS011;62266;53.348;-1.496;2022-08-19T11:11:36;7.88;;;1.63;;
73919;SDS011;62266;53.348;-1.496;2022-08-19T11:14:06;7.80;;;1.27;;
73919;SDS011;62266;53.348;-1.496;2022-08-19T11:16:35;8.10;;;1.48;;
73919;SDS011;62266;53.348;-1.496;2022-08-19T11:19:03;5.60;;;1.20;;
73919;SDS011;62266;53.348;-1.496;2022-08-19T11:21:30;7.28;;;1.50;;
73919;SDS011;62266;53.348;-1.496;2022-08-19T11:23:57;6.97;;;1.75;;
73919;SDS011;62266;53.348;-1.496;2022-08-19T11:26:25;4.97;;;1.27;;
73919;SDS011;62266;53.348;-1.496;2022-08-19T11:28:52;5.40;;;1.10;;
73919;SDS011;62266;53.348;-1.496;2022-08-19T11:31:22;5.80;;;1.20;;
73919;SDS011;62266;53.348;-1.496;2022-08-19T11:33:49;6.68;;;1.25;;
73919;SDS011;62266;53.348;-1.496;2022-08-19T11:36:19;6.88;;;1.35;;
73919;SDS011;62266;53.348;-1.496;2022-08-19T11:38:46;5.10;;;1.10;;
73919;SDS011;62266;53.348;-1.496;2022-08-19T11:41:16;5.73;;;1.03;;
73919;SDS011;62266;53.348;-1.496;2022-08-19T11:43:43;5.72;;;0.90;;
73919;SDS011;62266;53.348;-1.496;2022-08-19T11:46:09;3.63;;;0.95;;
73919;SDS011;62266;53.348;-1.496;2022-08-19T11:48:37;2.80;;;0.57;;
73919;SDS011;62266;53.348;-1.496;2022-08-19T11:51:06;4.55;;;0.70;;
73919;SDS011;62266;53.348;-1.496;2022-08-19T11:53:35;3.90;;;1.10;;
73919;SDS011;62266;53.348;-1.496;2022-08-19T11:56:03;4.32;;;1.08;;
73919;SDS011;62266;53.348;-1.496;2022-08-19T11:58:30;4.50;;;1.20;;
73919;SDS011;62266;53.348;-1.496;2022-08-19T12:00:55;3.57;;;0.97;;
73919;SDS011;62266;53.348;-1.496;2022-08-19T12:03:21;5.28;;;1.08;;
73919;SDS011;62266;53.348;-1.496;2022-08-19T12:05:47;5.28;;;1.42;;
73919;SDS011;62266;53.348;-1.496;2022-08-19T12:08:14;5.13;;;1.40;;
73919;SDS011;62266;53.348;-1.496;2022-08-19T12:10:40;5.88;;;1.58;;
73919;SDS011;62266;53.348;-1.496;2022-08-19T12:13:07;3.83;;;1.27;;
73919;SDS011;62266;53.348;-1.496;2022-08-19T12:15:37;6.88;;;1.50;;
73919;SDS011;62266;53.348;-1.496;2022-08-19T12:18:06;8.73;;;1.50;;
73919;SDS011;62266;53.348;-1.496;2022-08-19T12:20:34;6.00;;;1.20;;
73919;SDS011;62266;53.348;-1.496;2022-08-19T12:23:04;6.70;;;1.42;;
73919;SDS011;62266;53.348;-1.496;2022-08-19T12:25:30;4.97;;;1.10;;
73919;SDS011;62266;53.348;-1.496;2022-08-19T12:27:56;4.70;;;1.20;;
73919;SDS011;62266;53.348;-1.496;2022-08-19T12:30:22;5.85;;;1.15;;
73919;SDS011;62266;53.348;-1.496;2022-08-19T12:32:47;4.40;;;1.20;;
73919;SDS011;62266;53.348;-1.496;2022-08-19T12:35:13;4.87;;;1.17;;
73919;SDS011;62266;53.348;-1.496;2022-08-19T12:37:42;5.47;;;1.30;;
73919;SDS011;62266;53.348;-1.496;2022-08-19T12:40:10;2.88;;;1.00;;
73919;SDS011;62266;53.348;-1.496;2022-08-19T12:42:39;6.00;;;0.88;;
73919;SDS011;62266;53.348;-1.496;2022-08-19T12:45:09;3.53;;;0.77;;
73919;SDS011;62266;53.348;-1.496;2022-08-19T12:47:56;2.83;;;0.90;;
73919;SDS011;62266;53.348;-1.496;2022-08-19T12:50:24;2.25;;;0.70;;
73919;SDS011;62266;53.348;-1.496;2022-08-19T12:52:49;3.10;;;0.67;;
73919;SDS011;62266;53.348;-1.496;2022-08-19T12:55:15;5.32;;;0.70;;
73919;SDS011;62266;53.348;-1.496;2022-08-19T12:57:41;2.80;;;0.70;;
73919;SDS011;62266;53.348;-1.496;2022-08-19T13:00:10;2.80;;;0.65;;
73919;SDS011;62266;53.348;-1.496;2022-08-19T13:02:39;2.03;;;0.65;;
73919;SDS011;62266;53.348;-1.496;2022-08-19T13:05:09;2.13;;;0.60;;
73919;SDS011;62266;53.348;-1.496;2022-08-19T13:07:36;2.38;;;0.50;;
73919;SDS011;62266;53.348;-1.496;2022-08-19T13:10:04;3.47;;;0.52;;
73919;SDS011;62266;53.348;-1.496;2022-08-19T13:12:31;2.53;;;0.50;;
73919;SDS011;62266;53.348;-1.496;2022-08-19T13:14:57;0.90;;;0.40;;
73919;SDS011;62266;53.348;-1.496;2022-08-19T13:17:23;3.50;;;0.57;;
73919;SDS011;62266;53.348;-1.496;2022-08-19T13:19:48;3.90;;;0.40;;
73919;SDS011;62266;53.348;-1.496;2022-08-19T13:22:15;4.50;;;0.60;;
73919;SDS011;62266;53.348;-1.496;2022-08-19T13:24:41;4.22;;;0.70;;
73919;SDS011;62266;53.348;-1.496;2022-08-19T13:27:06;2.50;;;0.60;;
73919;SDS011;62266;53.348;-1.496;2022-08-19T13:29:32;2.73;;;0.40;;
73919;SDS011;62266;53.348;-1.496;2022-08-19T13:32:16;3.00;;;0.47;;
73919;SDS011;62266;53.348;-1.496;2022-08-19T13:35:01;2.17;;;0.50;;
73919;SDS011;62266;53.348;-1.496;2022-08-19T13:37:27;2.35;;;0.75;;
73919;SDS011;62266;53.348;-1.496;2022-08-19T13:40:12;2.72;;;0.40;;
73919;SDS011;62266;53.348;-1.496;2022-08-19T13:42:42;4.57;;;0.50;;
73919;SDS011;62266;53.348;-1.496;2022-08-19T13:45:09;2.13;;;0.63;;
73919;SDS011;62266;53.348;-1.496;2022-08-19T13:47:35;1.48;;;0.70;;
73919;SDS011;62266;53.348;-1.496;2022-08-19T13:50:10;2.78;;;0.60;;
73919;SDS011;62266;53.348;-1.496;2022-08-19T13:52:37;3.38;;;0.52;;
73919;SDS011;62266;53.348;-1.496;2022-08-19T13:55:04;2.20;;;0.40;;
73919;SDS011;62266;53.348;-1.496;2022-08-19T13:57:30;3.03;;;0.60;;
73919;SDS011;62266;53.348;-1.496;2022-08-19T13:59:57;2.00;;;0.65;;
73919;SDS011;62266;53.348;-1.496;2022-08-19T14:02:23;1.60;;;0.30;;
73919;SDS011;62266;53.348;-1.496;2022-08-19T14:04:48;2.70;;;0.60;;
73919;SDS011;62266;53.348;-1.496;2022-08-19T14:07:14;3.30;;;0.60;;
73919;SDS011;62266;53.348;-1.496;2022-08-19T14:09:40;4.13;;;0.40;;
73919;SDS011;62266;53.348;-1.496;2022-08-19T14:12:06;2.45;;;0.50;;
73919;SDS011;62266;53.348;-1.496;2022-08-19T14:14:32;2.88;;;0.77;;
73919;SDS011;62266;53.348;-1.496;2022-08-19T14:17:05;3.92;;;0.40;;
73919;SDS011;62266;53.348;-1.496;2022-08-19T14:19:31;3.70;;;0.60;;
73919;SDS011;62266;53.348;-1.496;2022-08-19T14:21:57;1.98;;;0.70;;
73919;SDS011;62266;53.348;-1.496;2022-08-19T14:24:23;3.10;;;0.70;;
73919;SDS011;62266;53.348;-1.496;2022-08-19T14:26:49;2.17;;;0.60;;
73919;SDS011;62266;53.348;-1.496;2022-08-19T14:29:14;2.10;;;0.40;;
73919;SDS011;62266;53.348;-1.496;2022-08-19T14:31:40;4.13;;;0.50;;
73919;SDS011;62266;53.348;-1.496;2022-08-19T14:34:08;2.30;;;0.57;;
73919;SDS011;62266;53.348;-1.496;2022-08-19T14:36:35;3.13;;;0.60;;
73919;SDS011;62266;53.348;-1.496;2022-08-19T14:39:02;1.85;;;0.70;;
73919;SDS011;62266;53.348;-1.496;2022-08-19T14:41:28;2.58;;;0.50;;
73919;SDS011;62266;53.348;-1.496;2022-08-19T14:43:55;3.03;;;0.50;;
73919;SDS011;62266;53.348;-1.496;2022-08-19T14:46:22;3.95;;;0.60;;